Herzliyya, Israel
Current Conditions -  °F | °C
As of 12:50 AM on Tuesday 23 Dec 2014 (Local Time) from LLSD Reporting Station
Scattered Clouds Scattered Clouds  
Wind Chill: 63°   Ceiling: Unl
Heat Index: 63°   Visibility: 6mi
Dew Point: 54°   Wind: 14mph
Humidity: 72%   Direction: 350°N
Pressure: 30"   Gusts: NA
Location:  32.19°N, 34.81°E
Report Text: LLSD 222150Z 35012KT 9999 SCT035 17/12 Q1016
Loading
Personal Weather Stations






























Interactive Weather Map New forecast layout! Learn more

10-Day Weather Forecast

Advertisements
Track Severe Weather on mobile